createdAt,value
2022-11-10T00:01:08.338Z,12.10
2022-11-10T00:03:36.718Z,12.10
2022-11-10T00:06:08.870Z,12.00
2022-11-10T00:08:36.004Z,12.10
2022-11-10T00:11:07.361Z,12.10
2022-11-10T00:13:57.098Z,12.00
2022-11-10T00:16:42.677Z,12.00
2022-11-10T00:19:09.932Z,12.10
2022-11-10T00:21:37.907Z,12.10
2022-11-10T00:24:05.479Z,12.10
2022-11-10T00:26:32.402Z,12.10
2022-11-10T00:28:59.230Z,12.10
2022-11-10T00:31:28.634Z,12.10
2022-11-10T00:33:56.078Z,12.00
2022-11-10T00:36:23.640Z,12.00
2022-11-10T00:38:51.479Z,12.00
2022-11-10T00:41:18.354Z,11.90
2022-11-10T00:43:45.230Z,12.00
2022-11-10T00:46:12.065Z,11.90
2022-11-10T00:48:38.850Z,11.90
2022-11-10T00:51:06.028Z,11.90
2022-11-10T00:53:32.903Z,11.90
2022-11-10T00:55:59.884Z,11.90
2022-11-10T00:58:26.660Z,11.90
2022-11-10T01:01:02.492Z,11.90
2022-11-10T01:03:29.449Z,11.90
2022-11-10T01:05:56.391Z,11.90
2022-11-10T01:08:23.705Z,11.90
2022-11-10T01:10:50.624Z,11.90
2022-11-10T01:13:17.438Z,12.00
2022-11-10T01:15:44.303Z,11.90
2022-11-10T01:18:11.123Z,11.90
2022-11-10T01:20:37.978Z,11.80
2022-11-10T01:23:04.869Z,11.80
2022-11-10T01:25:31.706Z,11.80
2022-11-10T01:27:58.685Z,11.80
2022-11-10T01:30:25.546Z,11.80
2022-11-10T01:32:52.348Z,11.80
2022-11-10T01:35:19.176Z,11.90
2022-11-10T01:37:46.075Z,11.90
2022-11-10T01:40:13.504Z,11.90
2022-11-10T01:42:52.033Z,11.90
2022-11-10T01:45:36.822Z,11.90
2022-11-10T01:48:07.555Z,12.00
2022-11-10T01:50:39.809Z,11.90
2022-11-10T01:53:11.760Z,11.90
2022-11-10T01:55:41.410Z,11.80
2022-11-10T01:58:08.860Z,11.80
2022-11-10T02:00:35.697Z,11.80
2022-11-10T02:03:21.365Z,11.80
2022-11-10T02:05:50.458Z,11.70
2022-11-10T02:08:18.715Z,11.70
2022-11-10T02:10:45.577Z,11.60
2022-11-10T02:13:12.581Z,11.60
2022-11-10T02:15:39.774Z,11.60
2022-11-10T02:18:06.561Z,11.60
2022-11-10T02:20:33.786Z,11.40
2022-11-10T02:23:15.727Z,11.40
2022-11-10T02:25:43.193Z,11.30
2022-11-10T02:28:10.099Z,11.30
2022-11-10T02:30:37.009Z,11.20
2022-11-10T02:33:04.109Z,11.20
2022-11-10T02:35:30.938Z,11.20
2022-11-10T02:37:57.827Z,11.20
2022-11-10T02:40:24.732Z,11.10
2022-11-10T02:42:51.575Z,11.10
2022-11-10T02:45:18.382Z,11.10
2022-11-10T02:47:45.214Z,11.10
2022-11-10T02:50:12.046Z,11.10
2022-11-10T02:52:38.889Z,11.10
2022-11-10T02:55:06.148Z,11.00
2022-11-10T02:57:32.996Z,11.00
2022-11-10T02:59:59.755Z,11.00
2022-11-10T03:02:31.176Z,10.90
2022-11-10T03:04:58.865Z,10.90
2022-11-10T03:07:25.796Z,10.80
2022-11-10T03:09:52.674Z,10.90
2022-11-10T03:12:19.516Z,10.80
2022-11-10T03:14:46.345Z,10.80
2022-11-10T03:17:13.176Z,10.80
2022-11-10T03:19:40.013Z,10.70
2022-11-10T03:22:06.799Z,10.70
2022-11-10T03:24:33.634Z,10.70
2022-11-10T03:27:00.489Z,10.70
2022-11-10T03:29:27.440Z,10.70
2022-11-10T03:31:54.486Z,10.60
2022-11-10T03:34:21.330Z,10.60
2022-11-10T03:36:48.162Z,10.60
2022-11-10T03:39:15.005Z,10.60
2022-11-10T03:41:41.849Z,10.60
2022-11-10T03:44:08.656Z,10.50
2022-11-10T03:46:35.439Z,10.50
2022-11-10T03:49:02.306Z,10.40
2022-11-10T03:51:29.070Z,10.40
2022-11-10T03:53:55.845Z,10.40
2022-11-10T03:56:22.705Z,10.30
2022-11-10T03:58:49.480Z,10.30
2022-11-10T04:01:16.485Z,10.30
2022-11-10T04:03:47.472Z,10.30
2022-11-10T04:06:35.652Z,10.30
2022-11-10T04:09:02.846Z,10.20
2022-11-10T04:11:49.409Z,10.20
2022-11-10T04:14:35.708Z,10.20
2022-11-10T04:17:03.261Z,10.20
2022-11-10T04:19:30.230Z,10.20
2022-11-10T04:21:57.550Z,10.10
2022-11-10T04:24:24.335Z,10.10
2022-11-10T04:26:51.153Z,10.00
2022-11-10T04:29:19.873Z,10.00
2022-11-10T04:31:47.034Z,10.00
2022-11-10T04:34:15.509Z,10.00
2022-11-10T04:36:43.768Z,9.90
2022-11-10T04:39:11.019Z,10.00
2022-11-10T04:41:38.067Z,9.90
2022-11-10T04:44:05.638Z,9.90
2022-11-10T04:46:37.998Z,9.90
2022-11-10T04:49:06.205Z,10.00
2022-11-10T04:51:36.593Z,10.00
2022-11-10T04:54:05.113Z,10.10
2022-11-10T04:56:31.954Z,10.10
2022-11-10T04:58:58.727Z,10.10
2022-11-10T05:01:27.441Z,10.10
2022-11-10T05:03:55.335Z,10.10
2022-11-10T05:06:22.207Z,10.10
2022-11-10T05:08:49.373Z,10.10
2022-11-10T05:11:16.685Z,10.10
2022-11-10T05:13:44.920Z,10.20
2022-11-10T05:16:12.512Z,10.20
2022-11-10T05:18:39.697Z,10.10
2022-11-10T05:21:06.627Z,10.10
2022-11-10T05:23:39.172Z,10.10
2022-11-10T05:26:06.068Z,10.10
2022-11-10T05:28:33.094Z,10.00
2022-11-10T05:30:59.966Z,10.00
2022-11-10T05:33:26.774Z,10.00
2022-11-10T05:35:53.569Z,9.90
2022-11-10T05:38:20.333Z,9.90
2022-11-10T05:40:47.114Z,9.90
2022-11-10T05:43:13.909Z,9.80
2022-11-10T05:45:40.643Z,9.80
2022-11-10T05:48:07.502Z,9.80
2022-11-10T05:50:34.263Z,9.80
2022-11-10T05:53:01.009Z,9.80
2022-11-10T05:55:28.907Z,9.80
2022-11-10T05:57:56.827Z,9.80
2022-11-10T06:00:26.569Z,9.80
2022-11-10T06:03:07.445Z,9.70
2022-11-10T06:05:36.061Z,9.70
2022-11-10T06:08:05.952Z,9.70
2022-11-10T06:10:41.984Z,9.70
2022-11-10T06:13:08.934Z,9.60
2022-11-10T06:15:35.737Z,9.60
2022-11-10T06:18:03.550Z,9.60
2022-11-10T06:20:30.391Z,9.60
2022-11-10T06:23:01.056Z,9.60
2022-11-10T06:25:33.197Z,9.60
2022-11-10T06:28:00.283Z,9.60
2022-11-10T06:30:28.319Z,9.60
2022-11-10T06:32:55.411Z,9.60
2022-11-10T06:35:28.102Z,9.50
2022-11-10T06:37:57.923Z,9.50
2022-11-10T06:40:30.376Z,9.50
2022-11-10T06:42:57.624Z,9.50
2022-11-10T06:45:25.164Z,9.50
2022-11-10T06:48:08.272Z,9.50
2022-11-10T06:50:35.395Z,9.50
2022-11-10T06:53:05.001Z,9.50
2022-11-10T06:55:32.135Z,9.50
2022-11-10T07:00:43.104Z,9.50
2022-11-10T07:03:13.426Z,9.50
2022-11-10T07:05:43.242Z,9.60
2022-11-10T07:08:19.031Z,9.60
2022-11-10T07:10:55.144Z,9.70
2022-11-10T07:13:25.299Z,9.70
2022-11-10T07:16:04.670Z,9.70
2022-11-10T07:18:40.641Z,9.70
2022-11-10T07:21:13.792Z,9.70
2022-11-10T07:23:46.859Z,9.70
2022-11-10T07:26:17.372Z,9.70
2022-11-10T07:28:44.202Z,9.70
2022-11-10T07:31:16.952Z,9.80
2022-11-10T07:33:44.342Z,9.80
2022-11-10T07:36:16.406Z,9.80
2022-11-10T07:38:45.715Z,9.80
2022-11-10T07:41:20.795Z,9.80
2022-11-10T07:43:50.695Z,9.80
2022-11-10T07:46:22.211Z,9.90
2022-11-10T07:48:54.047Z,9.90
2022-11-10T07:51:23.677Z,9.90
2022-11-10T07:53:50.420Z,10.00
2022-11-10T07:56:17.383Z,10.00
2022-11-10T07:58:44.263Z,10.10
2022-11-10T08:01:14.309Z,10.30
2022-11-10T08:03:41.182Z,10.30
2022-11-10T08:06:10.985Z,10.30
2022-11-10T08:08:37.924Z,10.50
2022-11-10T08:11:04.856Z,10.50
2022-11-10T08:13:34.753Z,10.60
2022-11-10T08:16:01.659Z,10.60
2022-11-10T08:18:35.138Z,10.60
2022-11-10T08:21:13.955Z,10.60
2022-11-10T08:23:41.170Z,10.70
2022-11-10T08:26:10.738Z,10.70
2022-11-10T08:28:37.605Z,10.70
2022-11-10T08:31:07.162Z,10.80
2022-11-10T08:33:33.894Z,10.90
2022-11-10T08:36:04.466Z,10.90
2022-11-10T08:38:31.312Z,11.00
2022-11-10T08:40:58.170Z,11.00
2022-11-10T08:43:31.986Z,11.10
2022-11-10T08:46:05.176Z,11.10
2022-11-10T08:48:50.803Z,11.10
2022-11-10T08:54:07.693Z,11.10
2022-11-10T08:56:34.568Z,11.20
2022-11-10T08:59:04.016Z,11.20
2022-11-10T09:01:30.748Z,11.30
2022-11-10T09:04:00.081Z,11.30
2022-11-10T09:06:26.909Z,11.40
2022-11-10T09:08:53.657Z,11.50
2022-11-10T09:11:41.123Z,11.50
2022-11-10T09:14:10.998Z,11.60
2022-11-10T09:16:37.763Z,11.60
2022-11-10T09:19:07.854Z,11.70
2022-11-10T09:21:39.701Z,11.70
2022-11-10T09:24:12.404Z,11.80
2022-11-10T09:26:39.334Z,11.90
2022-11-10T09:29:13.658Z,12.00
2022-11-10T09:31:40.454Z,12.10
2022-11-10T09:34:07.388Z,12.10
2022-11-10T09:36:34.171Z,12.20
2022-11-10T09:39:00.975Z,12.30
2022-11-10T09:41:30.006Z,12.30
2022-11-10T09:44:06.469Z,12.30
2022-11-10T09:46:45.410Z,12.30
2022-11-10T09:49:23.488Z,12.30
2022-11-10T09:51:51.239Z,12.30
2022-11-10T09:55:14.611Z,12.30
2022-11-10T09:57:48.731Z,12.40
2022-11-10T10:00:17.611Z,12.50
2022-11-10T10:03:12.816Z,12.50
2022-11-10T10:06:33.985Z,12.50
2022-11-10T10:09:11.945Z,12.50
2022-11-10T10:12:15.691Z,12.60
2022-11-10T10:15:17.994Z,12.70
2022-11-10T10:21:29.118Z,12.60
2022-11-10T10:24:21.204Z,12.60
2022-11-10T10:26:58.963Z,12.60
2022-11-10T10:29:47.300Z,12.70
2022-11-10T10:32:15.589Z,12.60
2022-11-10T10:34:44.255Z,12.70
2022-11-10T10:37:23.930Z,12.80
2022-11-10T10:39:55.212Z,12.90
2022-11-10T10:42:34.197Z,12.90
2022-11-10T10:45:24.222Z,12.80
2022-11-10T10:47:55.749Z,12.90
2022-11-10T10:50:24.523Z,12.90
2022-11-10T10:53:15.640Z,13.00
2022-11-10T10:56:18.667Z,13.00
2022-11-10T10:58:55.586Z,13.00
2022-11-10T11:01:34.661Z,13.00
2022-11-10T11:04:06.765Z,13.10
2022-11-10T11:06:35.212Z,13.20
2022-11-10T11:09:19.885Z,13.30
2022-11-10T11:12:02.197Z,13.30
2022-11-10T11:14:30.822Z,13.40
2022-11-10T11:17:00.672Z,13.40
2022-11-10T11:19:33.582Z,13.50
2022-11-10T11:22:06.271Z,13.50
2022-11-10T11:24:51.785Z,13.60
2022-11-10T11:27:33.873Z,13.70
2022-11-10T11:30:03.928Z,13.70
2022-11-10T11:32:56.667Z,13.70
2022-11-10T11:35:31.845Z,13.70
2022-11-10T11:38:13.668Z,13.60
2022-11-10T11:41:07.904Z,13.50
2022-11-10T11:43:49.739Z,13.50
2022-11-10T11:46:49.692Z,13.50
2022-11-10T11:49:22.262Z,13.40
2022-11-10T11:51:54.011Z,13.50
2022-11-10T11:54:54.173Z,13.50
2022-11-10T11:57:55.196Z,13.50
2022-11-10T12:00:23.409Z,13.40
2022-11-10T12:03:15.127Z,13.50
2022-11-10T12:06:13.007Z,13.50
2022-11-10T12:08:52.209Z,13.60
2022-11-10T12:11:44.000Z,13.70
2022-11-10T12:14:24.594Z,13.90
2022-11-10T12:17:10.916Z,13.90
2022-11-10T12:20:04.059Z,14.00
2022-11-10T12:22:57.976Z,14.00
2022-11-10T12:25:42.894Z,14.00
2022-11-10T12:28:20.945Z,14.00
2022-11-10T12:30:56.424Z,14.00
2022-11-10T12:34:03.749Z,14.00
2022-11-10T12:36:31.657Z,14.00
2022-11-10T12:39:04.739Z,14.10
2022-11-10T12:41:39.981Z,14.20
2022-11-10T12:44:19.068Z,14.20
2022-11-10T12:46:51.775Z,14.20
2022-11-10T12:49:35.042Z,14.20
2022-11-10T12:52:09.701Z,14.20
2022-11-10T12:54:37.128Z,14.10
2022-11-10T12:57:13.428Z,14.00
2022-11-10T12:59:50.329Z,14.00
2022-11-10T13:02:45.218Z,14.00
2022-11-10T13:05:20.072Z,14.00
2022-11-10T13:07:50.148Z,14.00
2022-11-10T13:10:24.722Z,14.10
2022-11-10T13:13:03.848Z,14.00
2022-11-10T13:15:39.970Z,14.00
2022-11-10T13:18:09.539Z,14.10
2022-11-10T13:20:39.406Z,14.20
2022-11-10T13:23:44.449Z,14.30
2022-11-10T13:26:32.510Z,14.30
2022-11-10T13:29:01.623Z,14.30
2022-11-10T13:31:28.415Z,14.30
2022-11-10T13:34:26.312Z,14.40
2022-11-10T13:36:53.112Z,14.30
2022-11-10T13:39:19.855Z,14.40
2022-11-10T13:41:51.746Z,14.40
2022-11-10T13:44:35.745Z,14.40
2022-11-10T13:47:08.650Z,14.40
2022-11-10T13:49:50.504Z,14.30
2022-11-10T13:52:45.967Z,14.30
2022-11-10T13:55:28.547Z,14.30
2022-11-10T13:58:10.300Z,14.30
2022-11-10T14:00:37.661Z,14.30
2022-11-10T14:03:06.605Z,14.20
2022-11-10T14:05:38.321Z,14.20
2022-11-10T14:08:13.466Z,14.20
2022-11-10T14:10:51.072Z,14.30
2022-11-10T14:13:45.405Z,14.20
2022-11-10T14:16:25.142Z,14.30
2022-11-10T14:19:03.688Z,14.20
2022-11-10T14:21:58.288Z,14.10
2022-11-10T14:24:38.218Z,14.10
2022-11-10T14:27:21.395Z,14.10
2022-11-10T14:29:48.348Z,14.00
2022-11-10T14:32:22.028Z,14.00
2022-11-10T14:34:54.023Z,14.10
2022-11-10T14:37:28.153Z,14.10
2022-11-10T14:39:57.395Z,14.10
2022-11-10T14:42:26.922Z,14.00
2022-11-10T14:45:16.402Z,14.00
2022-11-10T14:47:43.464Z,14.00
2022-11-10T14:50:19.351Z,14.00
2022-11-10T14:52:50.687Z,14.00
2022-11-10T14:55:30.279Z,14.00
2022-11-10T14:58:14.975Z,14.00
2022-11-10T15:00:44.367Z,14.00
2022-11-10T15:03:17.960Z,13.90
2022-11-10T15:05:44.972Z,13.90
2022-11-10T15:08:16.257Z,13.90
2022-11-10T15:10:47.956Z,13.80
2022-11-10T15:13:14.735Z,13.80
2022-11-10T15:15:41.680Z,13.80
2022-11-10T15:18:27.942Z,13.70
2022-11-10T15:21:05.376Z,13.60
2022-11-10T15:23:39.273Z,13.50
2022-11-10T15:26:16.527Z,13.50
2022-11-10T15:28:44.098Z,13.40
2022-11-10T15:31:21.058Z,13.40
2022-11-10T15:33:50.882Z,13.30
2022-11-10T15:36:28.813Z,13.20
2022-11-10T15:39:02.671Z,13.30
2022-11-10T15:41:32.712Z,13.30
2022-11-10T15:44:17.897Z,13.30
2022-11-10T15:46:45.567Z,13.20
2022-11-10T15:49:36.673Z,13.20
2022-11-10T15:52:11.785Z,13.20
2022-11-10T15:54:38.771Z,13.10
2022-11-10T15:57:15.012Z,13.00
2022-11-10T15:59:42.469Z,13.10
2022-11-10T16:02:27.423Z,13.10
2022-11-10T16:04:59.489Z,13.10
2022-11-10T16:07:26.984Z,13.10
2022-11-10T16:09:53.758Z,13.10
2022-11-10T16:12:22.592Z,13.10
2022-11-10T16:14:52.680Z,13.10
2022-11-10T16:17:19.568Z,13.10
2022-11-10T16:19:46.962Z,13.00
2022-11-10T16:22:14.183Z,13.00
2022-11-10T16:24:41.528Z,13.00
2022-11-10T16:27:12.688Z,13.00
2022-11-10T16:29:39.655Z,12.90
2022-11-10T16:32:07.073Z,12.90
2022-11-10T16:34:33.990Z,12.90
2022-11-10T16:37:01.129Z,12.90
2022-11-10T16:39:29.539Z,12.90
2022-11-10T16:41:56.344Z,12.80
2022-11-10T16:44:25.354Z,12.90
2022-11-10T16:46:56.747Z,12.80
2022-11-10T16:49:32.265Z,12.80
2022-11-10T16:51:59.257Z,12.70
2022-11-10T16:54:26.062Z,12.70
2022-11-10T16:56:52.856Z,12.70
2022-11-10T16:59:19.736Z,12.70
2022-11-10T17:01:47.699Z,12.70
2022-11-10T17:04:15.199Z,12.70
2022-11-10T17:06:43.333Z,12.70
2022-11-10T17:09:17.189Z,12.60
2022-11-10T17:11:44.110Z,12.70
2022-11-10T17:14:14.421Z,12.60
2022-11-10T17:16:43.940Z,12.60
2022-11-10T17:19:17.618Z,12.60
2022-11-10T17:21:45.337Z,12.60
2022-11-10T17:24:14.479Z,12.60
2022-11-10T17:26:42.724Z,12.60
2022-11-10T17:29:21.273Z,12.60
2022-11-10T17:31:50.286Z,12.70
2022-11-10T17:34:17.109Z,12.70
2022-11-10T17:36:44.015Z,12.70
2022-11-10T17:39:14.975Z,12.70
2022-11-10T17:41:41.834Z,12.70
2022-11-10T17:44:16.365Z,12.60
2022-11-10T17:46:43.654Z,12.60
2022-11-10T17:49:10.498Z,12.70
2022-11-10T17:51:37.782Z,12.70
2022-11-10T17:54:08.654Z,12.60
2022-11-10T17:56:35.416Z,12.60
2022-11-10T17:59:02.161Z,12.50
2022-11-10T18:01:29.011Z,12.50
2022-11-10T18:03:55.802Z,12.30
2022-11-10T18:06:22.607Z,12.30
2022-11-10T18:08:49.476Z,12.30
2022-11-10T18:11:18.297Z,12.20
2022-11-10T18:13:45.767Z,12.20
2022-11-10T18:16:15.444Z,12.10
2022-11-10T18:18:42.522Z,12.10
2022-11-10T18:21:10.375Z,12.10
2022-11-10T18:23:37.105Z,12.00
2022-11-10T18:26:08.830Z,12.00
2022-11-10T18:28:36.058Z,11.90
2022-11-10T18:31:10.683Z,12.00
2022-11-10T18:33:37.639Z,11.90
2022-11-10T18:36:04.708Z,11.90
2022-11-10T18:38:31.629Z,11.80
2022-11-10T18:41:22.796Z,11.80
2022-11-10T18:43:49.593Z,11.70
2022-11-10T18:46:16.377Z,11.70
2022-11-10T18:48:45.539Z,11.70
2022-11-10T18:51:12.402Z,11.60
2022-11-10T18:53:39.208Z,11.60
2022-11-10T18:56:06.123Z,11.60
2022-11-10T18:58:33.059Z,11.50
2022-11-10T19:01:04.839Z,11.50
2022-11-10T19:03:32.336Z,11.50
2022-11-10T19:05:59.816Z,11.50
2022-11-10T19:08:28.233Z,11.40
2022-11-10T19:10:55.956Z,11.40
2022-11-10T19:13:23.506Z,11.40
2022-11-10T19:15:50.515Z,11.30
2022-11-10T19:18:17.408Z,11.40
2022-11-10T19:20:44.158Z,11.30
2022-11-10T19:23:10.893Z,11.20
2022-11-10T19:25:37.747Z,11.20
2022-11-10T19:28:04.771Z,11.20
2022-11-10T19:30:31.608Z,11.20
2022-11-10T19:32:58.363Z,11.20
2022-11-10T19:35:25.174Z,11.20
2022-11-10T19:37:54.051Z,11.20
2022-11-10T19:40:21.506Z,11.20
2022-11-10T19:42:48.427Z,11.10
2022-11-10T19:45:16.627Z,11.10
2022-11-10T19:47:43.744Z,11.00
2022-11-10T19:50:10.549Z,11.00
2022-11-10T19:52:37.478Z,11.00
2022-11-10T19:55:04.497Z,11.00
2022-11-10T19:57:31.283Z,10.90
2022-11-10T19:59:58.036Z,10.80
2022-11-10T20:02:24.810Z,10.90
2022-11-10T20:05:10.067Z,10.80
2022-11-10T20:07:55.250Z,10.80
2022-11-10T20:10:22.286Z,10.70
2022-11-10T20:12:49.411Z,10.70
2022-11-10T20:15:16.339Z,10.70
2022-11-10T20:17:43.184Z,10.60
2022-11-10T20:20:10.523Z,10.60
2022-11-10T20:22:37.379Z,10.50
2022-11-10T20:25:04.649Z,10.40
2022-11-10T20:27:32.069Z,10.40
2022-11-10T20:29:58.865Z,10.30
2022-11-10T20:32:26.981Z,10.30
2022-11-10T20:34:53.978Z,10.30
2022-11-10T20:37:20.808Z,10.30
2022-11-10T20:39:47.641Z,10.30
2022-11-10T20:42:14.720Z,10.20
2022-11-10T20:44:41.529Z,10.20
2022-11-10T20:47:08.873Z,10.20
2022-11-10T20:49:36.076Z,10.20
2022-11-10T20:52:03.746Z,10.20
2022-11-10T20:54:30.957Z,10.20
2022-11-10T20:56:58.074Z,10.20
2022-11-10T20:59:25.249Z,10.10
2022-11-10T21:01:52.551Z,10.10
2022-11-10T21:04:20.045Z,10.10
2022-11-10T21:06:47.518Z,10.10
2022-11-10T21:09:14.776Z,10.10
2022-11-10T21:12:00.831Z,10.10
2022-11-10T21:14:28.100Z,10.10
2022-11-10T21:16:57.011Z,10.10
2022-11-10T21:19:24.291Z,10.10
2022-11-10T21:21:52.768Z,10.10
2022-11-10T21:24:20.603Z,10.10
2022-11-10T21:26:47.539Z,10.10
2022-11-10T21:29:14.400Z,10.10
2022-11-10T21:31:41.902Z,10.10
2022-11-10T21:34:09.009Z,10.10
2022-11-10T21:36:35.819Z,10.10
2022-11-10T21:39:02.741Z,10.10
2022-11-10T21:41:29.577Z,10.10
2022-11-10T21:43:56.418Z,10.00
2022-11-10T21:46:23.254Z,10.00
2022-11-10T21:48:51.064Z,10.00
2022-11-10T21:51:19.851Z,10.00
2022-11-10T21:53:47.272Z,10.00
2022-11-10T21:56:14.078Z,9.90
2022-11-10T21:58:40.848Z,9.90
2022-11-10T22:01:17.145Z,9.90
2022-11-10T22:03:43.922Z,9.90
2022-11-10T22:06:20.023Z,9.90
2022-11-10T22:08:47.805Z,9.80
2022-11-10T22:11:39.142Z,9.80
2022-11-10T22:14:31.230Z,9.80
2022-11-10T22:17:17.747Z,9.80
2022-11-10T22:19:44.591Z,9.80
2022-11-10T22:22:14.294Z,9.70
2022-11-10T22:24:41.373Z,9.70
2022-11-10T22:27:08.314Z,9.50
2022-11-10T22:29:35.163Z,9.40
2022-11-10T22:32:02.895Z,9.50
2022-11-10T22:34:30.328Z,9.40
2022-11-10T22:36:59.485Z,9.40
2022-11-10T22:39:46.459Z,9.40
2022-11-10T22:42:31.877Z,9.40
2022-11-10T22:44:58.889Z,9.40
2022-11-10T22:47:25.930Z,9.40
2022-11-10T22:49:52.702Z,9.40
2022-11-10T22:52:19.506Z,9.40
2022-11-10T22:54:46.256Z,9.30
2022-11-10T22:57:13.033Z,9.30
2022-11-10T22:59:39.810Z,9.40
2022-11-10T23:02:06.546Z,9.40
2022-11-10T23:04:33.273Z,9.40
2022-11-10T23:07:00.116Z,9.40
2022-11-10T23:09:27.018Z,9.40
2022-11-10T23:11:53.784Z,9.40
2022-11-10T23:14:20.750Z,9.40
2022-11-10T23:16:47.548Z,9.40
2022-11-10T23:19:14.370Z,9.30
2022-11-10T23:21:41.125Z,9.30
2022-11-10T23:24:08.098Z,9.20
2022-11-10T23:26:34.944Z,9.20
2022-11-10T23:29:01.774Z,9.10
2022-11-10T23:31:28.696Z,9.10
2022-11-10T23:33:57.542Z,9.10
2022-11-10T23:36:25.888Z,9.10
2022-11-10T23:38:54.128Z,9.00
2022-11-10T23:41:26.221Z,9.00
2022-11-10T23:43:53.829Z,8.90
2022-11-10T23:46:20.885Z,8.90
2022-11-10T23:48:48.793Z,8.90
2022-11-10T23:51:15.820Z,8.80
2022-11-10T23:53:42.886Z,8.80
2022-11-10T23:56:13.044Z,8.80
2022-11-10T23:58:40.220Z,8.80
